Skip Navigation Links Skip Navigation Links

Current Weather

Williams Gateway, Phoenix, Ariz.

For information only: do not use for flight planning or navigation.
Latest weather
Observation time Monday, October 18, 2021 11:50 AM MST
Local time Monday, October 18, 2021 12:48 PM MST
Flight conditions Visual Meteorological Conditions
Winds
Wind direction South (190°)
Wind speed 17 mph
Wind gusting to 23 mph
Visibility 10 mi.
Sky condition
Ceiling unlimited
Cloud layer scattered clouds 8,000 ft.
Temperature 79°F
Dewpoint 48°F
Altimeter 29.91 in.Hg
Derived measurements
Relative humidity 34%
Heat index 79°F
Density altitude 2831 ft.
METAR KIWA 181850Z 19015G20KT 10SM SCT080 26/09 A2991

Settings

Location code

InnerDrive.Weather 4.0.6770.0 Release CLR 4.0.30319.42000
Copyright ©2018 Inner Drive Technology. All rights reserved. Portions Copyright ©1986-2018 David Braverman.

Find weather

Site navigation


Skip Navigation Links

Place info

Page info

PayPal - The safer, easier way to pay online!

Return home.

Copyright ©2021 Inner Drive Technology. Purveyors of fine, hand-crafted computer software. Page printed 2021-10-18T19:48:40 UTC.